sensor_id;sensor_type;location;lat;lon;timestamp;P1;durP1;ratioP1;P2;durP2;ratioP2
23988;SDS011;12202;52.136;5.592;2022-08-19T00:01:45;21.85;;;17.42;;
23988;SDS011;12202;52.136;5.592;2022-08-19T00:04:13;25.27;;;18.70;;
23988;SDS011;12202;52.136;5.592;2022-08-19T00:06:40;21.80;;;17.42;;
23988;SDS011;12202;52.136;5.592;2022-08-19T00:09:07;25.42;;;19.20;;
23988;SDS011;12202;52.136;5.592;2022-08-19T00:11:34;24.85;;;19.98;;
23988;SDS011;12202;52.136;5.592;2022-08-19T00:14:02;24.17;;;18.83;;
23988;SDS011;12202;52.136;5.592;2022-08-19T00:16:28;25.95;;;21.15;;
23988;SDS011;12202;52.136;5.592;2022-08-19T00:18:54;20.90;;;17.10;;
23988;SDS011;12202;52.136;5.592;2022-08-19T00:21:20;26.20;;;18.45;;
23988;SDS011;12202;52.136;5.592;2022-08-19T00:23:46;25.60;;;16.75;;
23988;SDS011;12202;52.136;5.592;2022-08-19T00:26:12;26.15;;;16.83;;
23988;SDS011;12202;52.136;5.592;2022-08-19T00:28:38;23.08;;;17.58;;
23988;SDS011;12202;52.136;5.592;2022-08-19T00:31:05;21.05;;;15.85;;
23988;SDS011;12202;52.136;5.592;2022-08-19T00:33:31;22.20;;;18.23;;
23988;SDS011;12202;52.136;5.592;2022-08-19T00:36:01;19.80;;;15.10;;
23988;SDS011;12202;52.136;5.592;2022-08-19T00:38:29;23.90;;;16.80;;
23988;SDS011;12202;52.136;5.592;2022-08-19T00:40:55;24.58;;;18.65;;
23988;SDS011;12202;52.136;5.592;2022-08-19T00:43:21;23.30;;;16.45;;
23988;SDS011;12202;52.136;5.592;2022-08-19T00:45:48;24.17;;;17.08;;
23988;SDS011;12202;52.136;5.592;2022-08-19T00:48:15;23.88;;;17.05;;
23988;SDS011;12202;52.136;5.592;2022-08-19T00:50:41;23.40;;;17.45;;
23988;SDS011;12202;52.136;5.592;2022-08-19T00:53:08;23.10;;;17.92;;
23988;SDS011;12202;52.136;5.592;2022-08-19T00:55:34;24.10;;;19.00;;
23988;SDS011;12202;52.136;5.592;2022-08-19T00:58:04;28.80;;;18.52;;
23988;SDS011;12202;52.136;5.592;2022-08-19T01:00:31;22.60;;;18.27;;
23988;SDS011;12202;52.136;5.592;2022-08-19T01:03:00;29.40;;;19.65;;
23988;SDS011;12202;52.136;5.592;2022-08-19T01:05:26;29.20;;;20.20;;
23988;SDS011;12202;52.136;5.592;2022-08-19T01:07:54;28.45;;;20.30;;
23988;SDS011;12202;52.136;5.592;2022-08-19T01:10:21;30.52;;;20.48;;
23988;SDS011;12202;52.136;5.592;2022-08-19T01:12:49;24.45;;;18.30;;
23988;SDS011;12202;52.136;5.592;2022-08-19T01:15:16;25.98;;;18.35;;
23988;SDS011;12202;52.136;5.592;2022-08-19T01:17:43;23.08;;;18.00;;
23988;SDS011;12202;52.136;5.592;2022-08-19T01:20:11;24.08;;;19.33;;
23988;SDS011;12202;52.136;5.592;2022-08-19T01:22:48;26.05;;;18.38;;
23988;SDS011;12202;52.136;5.592;2022-08-19T01:25:15;26.65;;;19.55;;
23988;SDS011;12202;52.136;5.592;2022-08-19T01:27:43;22.75;;;17.67;;
23988;SDS011;12202;52.136;5.592;2022-08-19T01:30:10;21.15;;;17.75;;
23988;SDS011;12202;52.136;5.592;2022-08-19T01:32:37;26.20;;;18.27;;
23988;SDS011;12202;52.136;5.592;2022-08-19T01:35:03;30.63;;;20.33;;
23988;SDS011;12202;52.136;5.592;2022-08-19T01:37:30;26.90;;;20.55;;
23988;SDS011;12202;52.136;5.592;2022-08-19T01:39:56;24.95;;;18.48;;
23988;SDS011;12202;52.136;5.592;2022-08-19T01:42:22;26.42;;;19.13;;
23988;SDS011;12202;52.136;5.592;2022-08-19T01:44:48;27.42;;;19.08;;
23988;SDS011;12202;52.136;5.592;2022-08-19T01:47:14;27.58;;;19.52;;
23988;SDS011;12202;52.136;5.592;2022-08-19T01:49:40;25.17;;;17.92;;
23988;SDS011;12202;52.136;5.592;2022-08-19T01:52:06;27.45;;;19.73;;
23988;SDS011;12202;52.136;5.592;2022-08-19T01:54:32;30.67;;;21.80;;
23988;SDS011;12202;52.136;5.592;2022-08-19T01:57:03;27.60;;;19.98;;
23988;SDS011;12202;52.136;5.592;2022-08-19T01:59:29;27.02;;;19.85;;
23988;SDS011;12202;52.136;5.592;2022-08-19T02:01:56;29.05;;;20.00;;
23988;SDS011;12202;52.136;5.592;2022-08-19T02:04:22;26.80;;;18.80;;
23988;SDS011;12202;52.136;5.592;2022-08-19T02:06:48;25.40;;;19.63;;
23988;SDS011;12202;52.136;5.592;2022-08-19T02:09:14;30.05;;;19.85;;
23988;SDS011;12202;52.136;5.592;2022-08-19T02:11:41;31.40;;;19.52;;
23988;SDS011;12202;52.136;5.592;2022-08-19T02:14:07;25.77;;;19.98;;
23988;SDS011;12202;52.136;5.592;2022-08-19T02:16:34;21.27;;;17.38;;
23988;SDS011;12202;52.136;5.592;2022-08-19T02:19:00;24.98;;;20.13;;
23988;SDS011;12202;52.136;5.592;2022-08-19T02:21:26;26.20;;;19.33;;
23988;SDS011;12202;52.136;5.592;2022-08-19T02:23:53;30.08;;;18.35;;
23988;SDS011;12202;52.136;5.592;2022-08-19T02:26:19;27.38;;;19.60;;
23988;SDS011;12202;52.136;5.592;2022-08-19T02:28:45;27.55;;;19.52;;
23988;SDS011;12202;52.136;5.592;2022-08-19T02:31:13;29.35;;;22.08;;
23988;SDS011;12202;52.136;5.592;2022-08-19T02:33:42;32.35;;;22.75;;
23988;SDS011;12202;52.136;5.592;2022-08-19T02:36:08;28.70;;;21.45;;
23988;SDS011;12202;52.136;5.592;2022-08-19T02:38:34;32.15;;;21.52;;
23988;SDS011;12202;52.136;5.592;2022-08-19T02:41:03;27.75;;;20.98;;
23988;SDS011;12202;52.136;5.592;2022-08-19T02:43:30;28.65;;;21.25;;
23988;SDS011;12202;52.136;5.592;2022-08-19T02:45:56;27.63;;;21.42;;
23988;SDS011;12202;52.136;5.592;2022-08-19T02:48:23;25.83;;;20.83;;
23988;SDS011;12202;52.136;5.592;2022-08-19T02:50:50;32.05;;;21.85;;
23988;SDS011;12202;52.136;5.592;2022-08-19T02:53:20;28.70;;;21.30;;
23988;SDS011;12202;52.136;5.592;2022-08-19T02:55:47;28.73;;;21.48;;
23988;SDS011;12202;52.136;5.592;2022-08-19T02:58:13;24.38;;;18.58;;
23988;SDS011;12202;52.136;5.592;2022-08-19T03:00:44;27.52;;;19.67;;
23988;SDS011;12202;52.136;5.592;2022-08-19T03:03:10;27.80;;;20.10;;
23988;SDS011;12202;52.136;5.592;2022-08-19T03:05:36;27.58;;;18.38;;
23988;SDS011;12202;52.136;5.592;2022-08-19T03:08:02;27.63;;;21.77;;
23988;SDS011;12202;52.136;5.592;2022-08-19T03:10:29;24.15;;;19.17;;
23988;SDS011;12202;52.136;5.592;2022-08-19T03:12:54;32.90;;;23.05;;
23988;SDS011;12202;52.136;5.592;2022-08-19T03:15:20;26.90;;;20.52;;
23988;SDS011;12202;52.136;5.592;2022-08-19T03:17:46;28.05;;;21.58;;
23988;SDS011;12202;52.136;5.592;2022-08-19T03:20:12;30.63;;;22.25;;
23988;SDS011;12202;52.136;5.592;2022-08-19T03:22:38;30.08;;;22.40;;
23988;SDS011;12202;52.136;5.592;2022-08-19T03:25:04;34.67;;;23.65;;
23988;SDS011;12202;52.136;5.592;2022-08-19T03:27:30;36.80;;;24.58;;
23988;SDS011;12202;52.136;5.592;2022-08-19T03:29:56;33.83;;;22.83;;
23988;SDS011;12202;52.136;5.592;2022-08-19T03:32:23;35.67;;;24.05;;
23988;SDS011;12202;52.136;5.592;2022-08-19T03:34:49;35.45;;;25.15;;
23988;SDS011;12202;52.136;5.592;2022-08-19T03:37:15;34.92;;;25.35;;
23988;SDS011;12202;52.136;5.592;2022-08-19T03:39:41;44.33;;;27.33;;
23988;SDS011;12202;52.136;5.592;2022-08-19T03:42:08;40.15;;;27.33;;
23988;SDS011;12202;52.136;5.592;2022-08-19T03:44:34;34.50;;;25.15;;
23988;SDS011;12202;52.136;5.592;2022-08-19T03:47:02;37.92;;;24.95;;
23988;SDS011;12202;52.136;5.592;2022-08-19T03:49:29;45.45;;;24.17;;
23988;SDS011;12202;52.136;5.592;2022-08-19T03:51:57;32.85;;;23.40;;
23988;SDS011;12202;52.136;5.592;2022-08-19T03:54:25;39.80;;;25.48;;
23988;SDS011;12202;52.136;5.592;2022-08-19T03:56:52;39.33;;;24.88;;
23988;SDS011;12202;52.136;5.592;2022-08-19T03:59:24;32.40;;;21.85;;
23988;SDS011;12202;52.136;5.592;2022-08-19T04:01:51;43.28;;;24.90;;
23988;SDS011;12202;52.136;5.592;2022-08-19T04:04:17;31.23;;;22.02;;
23988;SDS011;12202;52.136;5.592;2022-08-19T04:06:43;39.53;;;26.08;;
23988;SDS011;12202;52.136;5.592;2022-08-19T04:09:10;29.65;;;22.20;;
23988;SDS011;12202;52.136;5.592;2022-08-19T04:11:41;38.03;;;25.42;;
23988;SDS011;12202;52.136;5.592;2022-08-19T04:14:08;31.45;;;21.65;;
23988;SDS011;12202;52.136;5.592;2022-08-19T04:16:35;30.85;;;23.45;;
23988;SDS011;12202;52.136;5.592;2022-08-19T04:19:01;29.30;;;21.38;;
23988;SDS011;12202;52.136;5.592;2022-08-19T04:21:28;28.88;;;21.85;;
23988;SDS011;12202;52.136;5.592;2022-08-19T04:23:55;27.70;;;20.48;;
23988;SDS011;12202;52.136;5.592;2022-08-19T04:26:22;30.25;;;21.30;;
23988;SDS011;12202;52.136;5.592;2022-08-19T04:28:49;31.08;;;21.25;;
23988;SDS011;12202;52.136;5.592;2022-08-19T04:31:26;29.05;;;20.48;;
23988;SDS011;12202;52.136;5.592;2022-08-19T04:33:53;26.05;;;18.55;;
23988;SDS011;12202;52.136;5.592;2022-08-19T04:36:22;28.23;;;20.70;;
23988;SDS011;12202;52.136;5.592;2022-08-19T04:38:49;28.35;;;18.80;;
23988;SDS011;12202;52.136;5.592;2022-08-19T04:41:15;29.63;;;18.70;;
23988;SDS011;12202;52.136;5.592;2022-08-19T04:44:00;33.72;;;21.20;;
23988;SDS011;12202;52.136;5.592;2022-08-19T04:46:27;27.40;;;19.02;;
23988;SDS011;12202;52.136;5.592;2022-08-19T04:48:55;27.95;;;19.02;;
23988;SDS011;12202;52.136;5.592;2022-08-19T04:51:22;28.58;;;20.80;;
23988;SDS011;12202;52.136;5.592;2022-08-19T04:53:48;26.27;;;19.10;;
23988;SDS011;12202;52.136;5.592;2022-08-19T04:56:15;27.40;;;19.20;;
23988;SDS011;12202;52.136;5.592;2022-08-19T04:58:42;29.05;;;19.73;;
23988;SDS011;12202;52.136;5.592;2022-08-19T05:01:09;27.30;;;20.33;;
23988;SDS011;12202;52.136;5.592;2022-08-19T05:03:37;31.73;;;22.23;;
23988;SDS011;12202;52.136;5.592;2022-08-19T05:06:07;32.75;;;22.65;;
23988;SDS011;12202;52.136;5.592;2022-08-19T05:08:35;28.88;;;20.52;;
23988;SDS011;12202;52.136;5.592;2022-08-19T05:11:01;26.33;;;19.42;;
23988;SDS011;12202;52.136;5.592;2022-08-19T05:13:27;38.10;;;21.13;;
23988;SDS011;12202;52.136;5.592;2022-08-19T05:15:54;27.45;;;19.58;;
23988;SDS011;12202;52.136;5.592;2022-08-19T05:18:21;28.48;;;19.92;;
23988;SDS011;12202;52.136;5.592;2022-08-19T05:21:09;27.75;;;19.60;;
23988;SDS011;12202;52.136;5.592;2022-08-19T05:23:54;31.25;;;20.85;;
23988;SDS011;12202;52.136;5.592;2022-08-19T05:26:20;31.77;;;21.23;;
23988;SDS011;12202;52.136;5.592;2022-08-19T05:28:46;34.50;;;22.33;;
23988;SDS011;12202;52.136;5.592;2022-08-19T05:31:12;37.47;;;23.92;;
23988;SDS011;12202;52.136;5.592;2022-08-19T05:33:38;40.85;;;24.55;;
23988;SDS011;12202;52.136;5.592;2022-08-19T05:36:04;40.10;;;24.00;;
23988;SDS011;12202;52.136;5.592;2022-08-19T05:38:32;36.63;;;26.02;;
23988;SDS011;12202;52.136;5.592;2022-08-19T05:40:58;38.85;;;27.52;;
23988;SDS011;12202;52.136;5.592;2022-08-19T05:43:24;42.90;;;27.55;;
23988;SDS011;12202;52.136;5.592;2022-08-19T05:45:50;39.40;;;26.38;;
23988;SDS011;12202;52.136;5.592;2022-08-19T05:48:16;44.10;;;26.80;;
23988;SDS011;12202;52.136;5.592;2022-08-19T05:50:45;46.03;;;27.77;;
23988;SDS011;12202;52.136;5.592;2022-08-19T05:53:15;56.97;;;30.20;;
23988;SDS011;12202;52.136;5.592;2022-08-19T05:55:41;60.70;;;30.52;;
23988;SDS011;12202;52.136;5.592;2022-08-19T05:58:07;50.75;;;30.58;;
23988;SDS011;12202;52.136;5.592;2022-08-19T06:00:34;51.70;;;31.35;;
23988;SDS011;12202;52.136;5.592;2022-08-19T06:03:00;52.70;;;30.30;;
23988;SDS011;12202;52.136;5.592;2022-08-19T06:05:28;71.47;;;36.92;;
23988;SDS011;12202;52.136;5.592;2022-08-19T06:07:54;72.28;;;36.97;;
23988;SDS011;12202;52.136;5.592;2022-08-19T06:10:20;61.10;;;34.53;;
23988;SDS011;12202;52.136;5.592;2022-08-19T06:12:46;68.13;;;36.38;;
23988;SDS011;12202;52.136;5.592;2022-08-19T06:15:13;76.82;;;39.55;;
23988;SDS011;12202;52.136;5.592;2022-08-19T06:17:39;76.05;;;39.08;;
23988;SDS011;12202;52.136;5.592;2022-08-19T06:20:07;86.93;;;43.08;;
23988;SDS011;12202;52.136;5.592;2022-08-19T06:22:41;83.93;;;42.53;;
23988;SDS011;12202;52.136;5.592;2022-08-19T06:25:08;80.45;;;41.53;;
23988;SDS011;12202;52.136;5.592;2022-08-19T06:27:34;80.10;;;42.67;;
23988;SDS011;12202;52.136;5.592;2022-08-19T06:30:00;79.95;;;41.85;;
23988;SDS011;12202;52.136;5.592;2022-08-19T06:32:26;89.05;;;44.80;;
23988;SDS011;12202;52.136;5.592;2022-08-19T06:34:52;107.53;;;49.38;;
23988;SDS011;12202;52.136;5.592;2022-08-19T06:37:18;111.57;;;48.47;;
23988;SDS011;12202;52.136;5.592;2022-08-19T06:39:46;127.35;;;55.70;;
23988;SDS011;12202;52.136;5.592;2022-08-19T06:42:12;117.68;;;51.92;;
23988;SDS011;12202;52.136;5.592;2022-08-19T06:44:41;119.55;;;52.15;;
23988;SDS011;12202;52.136;5.592;2022-08-19T06:47:08;122.50;;;52.92;;
23988;SDS011;12202;52.136;5.592;2022-08-19T06:49:35;132.57;;;54.10;;
23988;SDS011;12202;52.136;5.592;2022-08-19T06:52:02;130.20;;;56.08;;
23988;SDS011;12202;52.136;5.592;2022-08-19T06:54:28;133.93;;;59.17;;
23988;SDS011;12202;52.136;5.592;2022-08-19T06:56:54;133.30;;;59.78;;
23988;SDS011;12202;52.136;5.592;2022-08-19T06:59:23;137.40;;;56.85;;
23988;SDS011;12202;52.136;5.592;2022-08-19T07:01:53;139.98;;;58.47;;
23988;SDS011;12202;52.136;5.592;2022-08-19T07:04:24;128.43;;;62.15;;
23988;SDS011;12202;52.136;5.592;2022-08-19T07:06:55;134.40;;;61.00;;
23988;SDS011;12202;52.136;5.592;2022-08-19T07:09:21;128.80;;;59.25;;
23988;SDS011;12202;52.136;5.592;2022-08-19T07:11:48;125.13;;;63.35;;
23988;SDS011;12202;52.136;5.592;2022-08-19T07:14:15;128.50;;;62.53;;
23988;SDS011;12202;52.136;5.592;2022-08-19T07:16:42;123.80;;;62.00;;
23988;SDS011;12202;52.136;5.592;2022-08-19T07:19:10;134.70;;;63.67;;
23988;SDS011;12202;52.136;5.592;2022-08-19T07:21:36;130.52;;;63.20;;
23988;SDS011;12202;52.136;5.592;2022-08-19T07:24:02;127.03;;;64.07;;
23988;SDS011;12202;52.136;5.592;2022-08-19T07:26:30;140.02;;;65.93;;
23988;SDS011;12202;52.136;5.592;2022-08-19T07:28:57;136.00;;;66.13;;
23988;SDS011;12202;52.136;5.592;2022-08-19T07:31:25;128.88;;;63.03;;
23988;SDS011;12202;52.136;5.592;2022-08-19T07:33:52;124.75;;;61.30;;
23988;SDS011;12202;52.136;5.592;2022-08-19T07:36:21;123.28;;;60.67;;
23988;SDS011;12202;52.136;5.592;2022-08-19T07:38:48;129.38;;;60.35;;
23988;SDS011;12202;52.136;5.592;2022-08-19T07:41:16;126.55;;;62.10;;
23988;SDS011;12202;52.136;5.592;2022-08-19T07:43:43;124.70;;;59.42;;
23988;SDS011;12202;52.136;5.592;2022-08-19T07:46:11;122.00;;;60.15;;
23988;SDS011;12202;52.136;5.592;2022-08-19T07:48:38;116.45;;;58.95;;
23988;SDS011;12202;52.136;5.592;2022-08-19T07:51:05;118.25;;;59.78;;
23988;SDS011;12202;52.136;5.592;2022-08-19T07:53:33;131.57;;;62.55;;
23988;SDS011;12202;52.136;5.592;2022-08-19T07:56:00;113.05;;;56.80;;
23988;SDS011;12202;52.136;5.592;2022-08-19T07:58:33;123.80;;;60.00;;
23988;SDS011;12202;52.136;5.592;2022-08-19T08:01:00;117.85;;;59.70;;
23988;SDS011;12202;52.136;5.592;2022-08-19T08:03:26;118.28;;;59.75;;
23988;SDS011;12202;52.136;5.592;2022-08-19T08:06:12;117.40;;;58.28;;
23988;SDS011;12202;52.136;5.592;2022-08-19T08:08:57;120.45;;;59.05;;
23988;SDS011;12202;52.136;5.592;2022-08-19T08:11:36;120.95;;;59.83;;
23988;SDS011;12202;52.136;5.592;2022-08-19T08:14:02;123.30;;;60.65;;
23988;SDS011;12202;52.136;5.592;2022-08-19T08:16:29;127.50;;;60.50;;
23988;SDS011;12202;52.136;5.592;2022-08-19T08:18:56;109.18;;;55.58;;
23988;SDS011;12202;52.136;5.592;2022-08-19T08:21:22;121.63;;;57.08;;
23988;SDS011;12202;52.136;5.592;2022-08-19T08:23:48;111.05;;;57.22;;
23988;SDS011;12202;52.136;5.592;2022-08-19T08:26:14;101.90;;;54.80;;
23988;SDS011;12202;52.136;5.592;2022-08-19T08:28:41;105.88;;;52.45;;
23988;SDS011;12202;52.136;5.592;2022-08-19T08:31:07;88.63;;;48.28;;
23988;SDS011;12202;52.136;5.592;2022-08-19T08:33:34;91.90;;;48.70;;
23988;SDS011;12202;52.136;5.592;2022-08-19T08:36:01;95.10;;;49.95;;
23988;SDS011;12202;52.136;5.592;2022-08-19T08:38:27;90.47;;;48.83;;
23988;SDS011;12202;52.136;5.592;2022-08-19T08:40:56;83.78;;;46.22;;
23988;SDS011;12202;52.136;5.592;2022-08-19T08:43:30;81.93;;;46.90;;
23988;SDS011;12202;52.136;5.592;2022-08-19T08:46:03;87.10;;;46.80;;
23988;SDS011;12202;52.136;5.592;2022-08-19T08:50:56;86.60;;;46.00;;
23988;SDS011;12202;52.136;5.592;2022-08-19T08:53:23;88.47;;;45.80;;
23988;SDS011;12202;52.136;5.592;2022-08-19T08:55:49;72.30;;;40.13;;
23988;SDS011;12202;52.136;5.592;2022-08-19T08:58:26;74.53;;;40.30;;
23988;SDS011;12202;52.136;5.592;2022-08-19T09:00:54;72.60;;;39.85;;
23988;SDS011;12202;52.136;5.592;2022-08-19T09:03:21;68.65;;;42.50;;
23988;SDS011;12202;52.136;5.592;2022-08-19T09:06:23;72.03;;;41.50;;
23988;SDS011;12202;52.136;5.592;2022-08-19T09:11:08;68.90;;;39.83;;
23988;SDS011;12202;52.136;5.592;2022-08-19T09:13:41;57.25;;;36.72;;
23988;SDS011;12202;52.136;5.592;2022-08-19T09:16:11;59.03;;;35.97;;
23988;SDS011;12202;52.136;5.592;2022-08-19T09:18:39;64.10;;;36.60;;
23988;SDS011;12202;52.136;5.592;2022-08-19T09:21:06;54.53;;;33.03;;
23988;SDS011;12202;52.136;5.592;2022-08-19T09:23:33;51.20;;;32.10;;
23988;SDS011;12202;52.136;5.592;2022-08-19T09:25:59;55.33;;;33.60;;
23988;SDS011;12202;52.136;5.592;2022-08-19T09:28:25;54.95;;;34.42;;
23988;SDS011;12202;52.136;5.592;2022-08-19T09:30:52;58.10;;;36.25;;
23988;SDS011;12202;52.136;5.592;2022-08-19T09:33:18;58.22;;;34.60;;
23988;SDS011;12202;52.136;5.592;2022-08-19T09:35:44;51.10;;;31.13;;
23988;SDS011;12202;52.136;5.592;2022-08-19T09:38:11;54.47;;;32.40;;
23988;SDS011;12202;52.136;5.592;2022-08-19T09:40:37;53.75;;;34.13;;
23988;SDS011;12202;52.136;5.592;2022-08-19T09:43:03;53.50;;;33.50;;
23988;SDS011;12202;52.136;5.592;2022-08-19T09:45:30;51.92;;;32.05;;
23988;SDS011;12202;52.136;5.592;2022-08-19T09:47:56;52.20;;;32.22;;
23988;SDS011;12202;52.136;5.592;2022-08-19T09:50:22;50.08;;;31.63;;
23988;SDS011;12202;52.136;5.592;2022-08-19T09:52:48;51.00;;;32.17;;
23988;SDS011;12202;52.136;5.592;2022-08-19T09:55:14;54.33;;;31.70;;
23988;SDS011;12202;52.136;5.592;2022-08-19T09:57:41;47.13;;;30.48;;
23988;SDS011;12202;52.136;5.592;2022-08-19T10:00:07;42.65;;;27.58;;
23988;SDS011;12202;52.136;5.592;2022-08-19T10:02:34;46.42;;;29.80;;
23988;SDS011;12202;52.136;5.592;2022-08-19T10:05:00;40.78;;;25.90;;
23988;SDS011;12202;52.136;5.592;2022-08-19T10:07:45;40.28;;;23.83;;
23988;SDS011;12202;52.136;5.592;2022-08-19T10:10:11;38.80;;;25.67;;
23988;SDS011;12202;52.136;5.592;2022-08-19T10:12:37;44.47;;;28.40;;
23988;SDS011;12202;52.136;5.592;2022-08-19T10:15:04;42.42;;;25.42;;
23988;SDS011;12202;52.136;5.592;2022-08-19T10:17:31;41.42;;;24.70;;
23988;SDS011;12202;52.136;5.592;2022-08-19T10:19:58;46.97;;;25.77;;
23988;SDS011;12202;52.136;5.592;2022-08-19T10:22:24;34.85;;;21.23;;
23988;SDS011;12202;52.136;5.592;2022-08-19T10:24:50;34.63;;;21.88;;
23988;SDS011;12202;52.136;5.592;2022-08-19T10:27:17;37.17;;;24.20;;
23988;SDS011;12202;52.136;5.592;2022-08-19T10:29:43;42.85;;;25.92;;
23988;SDS011;12202;52.136;5.592;2022-08-19T10:32:09;35.40;;;22.90;;
23988;SDS011;12202;52.136;5.592;2022-08-19T10:34:38;38.72;;;24.17;;
23988;SDS011;12202;52.136;5.592;2022-08-19T10:37:04;39.00;;;22.08;;
23988;SDS011;12202;52.136;5.592;2022-08-19T10:39:34;33.25;;;19.88;;
23988;SDS011;12202;52.136;5.592;2022-08-19T10:42:04;39.95;;;24.67;;
23988;SDS011;12202;52.136;5.592;2022-08-19T10:44:31;36.30;;;24.63;;
23988;SDS011;12202;52.136;5.592;2022-08-19T10:46:57;32.22;;;22.23;;
23988;SDS011;12202;52.136;5.592;2022-08-19T10:49:23;35.55;;;23.33;;
23988;SDS011;12202;52.136;5.592;2022-08-19T10:51:49;31.30;;;20.05;;
23988;SDS011;12202;52.136;5.592;2022-08-19T10:54:34;38.55;;;24.70;;
23988;SDS011;12202;52.136;5.592;2022-08-19T10:57:18;31.25;;;21.10;;
23988;SDS011;12202;52.136;5.592;2022-08-19T10:59:44;32.58;;;22.15;;
23988;SDS011;12202;52.136;5.592;2022-08-19T11:02:12;30.90;;;20.50;;
23988;SDS011;12202;52.136;5.592;2022-08-19T11:04:39;29.65;;;19.33;;
23988;SDS011;12202;52.136;5.592;2022-08-19T11:07:05;33.30;;;23.50;;
23988;SDS011;12202;52.136;5.592;2022-08-19T11:09:36;33.17;;;22.15;;
23988;SDS011;12202;52.136;5.592;2022-08-19T11:12:03;38.42;;;27.10;;
23988;SDS011;12202;52.136;5.592;2022-08-19T11:14:30;35.55;;;24.83;;
23988;SDS011;12202;52.136;5.592;2022-08-19T11:16:57;36.45;;;25.73;;
23988;SDS011;12202;52.136;5.592;2022-08-19T11:19:23;37.47;;;25.13;;
23988;SDS011;12202;52.136;5.592;2022-08-19T11:21:50;40.03;;;26.85;;
23988;SDS011;12202;52.136;5.592;2022-08-19T11:24:18;40.75;;;27.60;;
23988;SDS011;12202;52.136;5.592;2022-08-19T11:26:45;38.70;;;26.92;;
23988;SDS011;12202;52.136;5.592;2022-08-19T11:29:13;36.88;;;25.67;;
23988;SDS011;12202;52.136;5.592;2022-08-19T11:31:41;39.58;;;27.73;;
23988;SDS011;12202;52.136;5.592;2022-08-19T11:34:08;45.45;;;30.88;;
23988;SDS011;12202;52.136;5.592;2022-08-19T11:36:37;49.95;;;33.05;;
23988;SDS011;12202;52.136;5.592;2022-08-19T11:39:04;62.28;;;34.58;;
23988;SDS011;12202;52.136;5.592;2022-08-19T11:41:30;48.22;;;32.58;;
23988;SDS011;12202;52.136;5.592;2022-08-19T11:43:56;51.22;;;34.45;;
23988;SDS011;12202;52.136;5.592;2022-08-19T11:46:23;40.50;;;28.08;;
23988;SDS011;12202;52.136;5.592;2022-08-19T11:48:50;43.97;;;31.88;;
23988;SDS011;12202;52.136;5.592;2022-08-19T11:51:20;44.20;;;30.45;;
23988;SDS011;12202;52.136;5.592;2022-08-19T11:53:46;47.20;;;33.47;;
23988;SDS011;12202;52.136;5.592;2022-08-19T11:56:12;42.33;;;28.30;;
23988;SDS011;12202;52.136;5.592;2022-08-19T11:58:39;55.08;;;37.22;;
23988;SDS011;12202;52.136;5.592;2022-08-19T12:01:13;49.33;;;33.42;;
23988;SDS011;12202;52.136;5.592;2022-08-19T12:03:41;51.47;;;34.55;;
23988;SDS011;12202;52.136;5.592;2022-08-19T12:06:11;52.63;;;36.50;;
23988;SDS011;12202;52.136;5.592;2022-08-19T12:08:38;56.80;;;38.70;;
23988;SDS011;12202;52.136;5.592;2022-08-19T12:11:04;45.35;;;30.65;;
23988;SDS011;12202;52.136;5.592;2022-08-19T12:13:32;45.60;;;32.17;;
23988;SDS011;12202;52.136;5.592;2022-08-19T12:15:59;59.22;;;40.22;;
23988;SDS011;12202;52.136;5.592;2022-08-19T12:18:25;57.08;;;36.90;;
23988;SDS011;12202;52.136;5.592;2022-08-19T12:20:51;50.22;;;35.78;;
23988;SDS011;12202;52.136;5.592;2022-08-19T12:23:19;54.05;;;37.90;;
23988;SDS011;12202;52.136;5.592;2022-08-19T12:25:46;51.88;;;35.33;;
23988;SDS011;12202;52.136;5.592;2022-08-19T12:28:15;55.17;;;37.47;;
23988;SDS011;12202;52.136;5.592;2022-08-19T12:30:42;58.28;;;38.92;;
23988;SDS011;12202;52.136;5.592;2022-08-19T12:33:08;58.65;;;36.95;;
23988;SDS011;12202;52.136;5.592;2022-08-19T12:35:34;59.28;;;39.25;;
23988;SDS011;12202;52.136;5.592;2022-08-19T12:38:00;55.55;;;37.63;;
23988;SDS011;12202;52.136;5.592;2022-08-19T12:40:27;52.63;;;37.30;;
23988;SDS011;12202;52.136;5.592;2022-08-19T12:42:54;59.67;;;38.55;;
23988;SDS011;12202;52.136;5.592;2022-08-19T12:45:20;62.90;;;37.88;;
23988;SDS011;12202;52.136;5.592;2022-08-19T12:47:47;47.28;;;32.92;;
23988;SDS011;12202;52.136;5.592;2022-08-19T12:50:13;59.95;;;36.22;;
23988;SDS011;12202;52.136;5.592;2022-08-19T12:52:39;52.42;;;35.83;;
23988;SDS011;12202;52.136;5.592;2022-08-19T12:55:07;58.30;;;39.03;;
23988;SDS011;12202;52.136;5.592;2022-08-19T12:57:33;61.20;;;38.97;;
23988;SDS011;12202;52.136;5.592;2022-08-19T13:00:02;64.03;;;40.08;;
23988;SDS011;12202;52.136;5.592;2022-08-19T13:02:32;70.88;;;43.83;;
23988;SDS011;12202;52.136;5.592;2022-08-19T13:04:59;72.43;;;44.22;;
23988;SDS011;12202;52.136;5.592;2022-08-19T13:07:25;65.85;;;43.10;;
23988;SDS011;12202;52.136;5.592;2022-08-19T13:09:52;74.90;;;45.38;;
23988;SDS011;12202;52.136;5.592;2022-08-19T13:12:18;65.38;;;43.55;;
23988;SDS011;12202;52.136;5.592;2022-08-19T13:14:45;74.22;;;46.22;;
23988;SDS011;12202;52.136;5.592;2022-08-19T13:17:15;70.57;;;47.35;;
23988;SDS011;12202;52.136;5.592;2022-08-19T13:19:41;67.03;;;43.53;;
23988;SDS011;12202;52.136;5.592;2022-08-19T13:22:07;57.95;;;41.75;;
23988;SDS011;12202;52.136;5.592;2022-08-19T13:24:33;62.60;;;41.97;;
23988;SDS011;12202;52.136;5.592;2022-08-19T13:27:02;62.38;;;41.53;;
23988;SDS011;12202;52.136;5.592;2022-08-19T13:29:28;58.22;;;40.92;;
23988;SDS011;12202;52.136;5.592;2022-08-19T13:32:13;48.83;;;36.70;;
23988;SDS011;12202;52.136;5.592;2022-08-19T13:34:58;55.85;;;40.67;;
23988;SDS011;12202;52.136;5.592;2022-08-19T13:37:24;55.00;;;40.20;;
23988;SDS011;12202;52.136;5.592;2022-08-19T13:40:15;52.03;;;34.08;;
23988;SDS011;12202;52.136;5.592;2022-08-19T13:42:44;59.67;;;36.63;;
23988;SDS011;12202;52.136;5.592;2022-08-19T13:45:11;58.17;;;37.67;;
23988;SDS011;12202;52.136;5.592;2022-08-19T13:47:38;52.13;;;34.72;;
23988;SDS011;12202;52.136;5.592;2022-08-19T13:50:12;50.78;;;33.78;;
23988;SDS011;12202;52.136;5.592;2022-08-19T13:52:39;52.03;;;35.17;;
23988;SDS011;12202;52.136;5.592;2022-08-19T13:55:05;47.70;;;35.28;;
23988;SDS011;12202;52.136;5.592;2022-08-19T13:57:32;47.83;;;34.50;;
23988;SDS011;12202;52.136;5.592;2022-08-19T13:59:58;53.88;;;35.70;;
23988;SDS011;12202;52.136;5.592;2022-08-19T14:02:24;47.15;;;35.80;;
23988;SDS011;12202;52.136;5.592;2022-08-19T14:04:51;61.20;;;40.60;;
23988;SDS011;12202;52.136;5.592;2022-08-19T14:07:17;50.40;;;36.70;;
23988;SDS011;12202;52.136;5.592;2022-08-19T14:09:43;52.80;;;38.67;;
23988;SDS011;12202;52.136;5.592;2022-08-19T14:12:09;58.90;;;38.53;;
23988;SDS011;12202;52.136;5.592;2022-08-19T14:14:36;47.70;;;34.65;;
23988;SDS011;12202;52.136;5.592;2022-08-19T14:17:05;57.92;;;42.83;;
23988;SDS011;12202;52.136;5.592;2022-08-19T14:19:31;52.90;;;39.08;;
23988;SDS011;12202;52.136;5.592;2022-08-19T14:21:57;56.85;;;40.30;;
23988;SDS011;12202;52.136;5.592;2022-08-19T14:24:23;67.28;;;45.15;;
23988;SDS011;12202;52.136;5.592;2022-08-19T14:26:49;65.65;;;44.95;;
23988;SDS011;12202;52.136;5.592;2022-08-19T14:29:15;67.63;;;44.58;;